« 趣味的航空路誌改訂情報 2024/4/18 thu | トップページ | 定点 富山空港 2024/4/21 sun »

2024/04/19

定点 富山空港他 2024/4/19 fri

黄砂来襲。朝から晴れているのに白っぽい、もやっとした空模様。

RJNT 190000Z 25003KT 170V300 9999 FEW020 SCT080 15/09 Q1013

20240419_rjnt_00ja11fj

昨日、富山-青森を往復して、お泊り。今日も青森へ飛び立ちます。

20240419_rjnt_01ja11fj

FDA7901 RJNT-RJSA JA11FJ ERJ-175STD

20240419_rjnt_02ja11fj

今は、弘前城のサクラが見ごろだね。

RJNT 190100Z VRB02KT 9999 FEW030 16/07 Q1013

20240419_rjnt_03jr1028d

久しぶりに鉄分補給が仇。JA412N を撮り逃してしまった。

20240419_rjnt_04jr1028d

1028D D202

RJNT 190200Z VRB04KT 9999 FEW030 17/07 Q1012

20240419_rjnt_05ja84an
20240419_rjnt_06ja84an

ANA315 RJTT-RJNT JA84AN B737-881

20240419_rjnt_07ja84an

ANA316 RJNT-RJTT JA84AN B737-881

いやー、読書に熱中してしまい、撮り逃しやわ。

20240419_rjnt_08ja139t

JA139T↓ AW139 富山県警察

RJNT 190300Z VRB02KT 9999 FEW030 18/06 Q1012

20240419_rjnt_09ja70an
20240419_rjnt_10ja70an

ANA1182 RJCC-RJNT JA70AN B737-881

20240419_rjnt_11ja173b

JA173B← BK117C-2 THK 富山県ドクターヘリ

ドクヘリと言えば、沖縄県浦添総合病院の運行会社がヒラタから鹿児島に変わったようです。今度グランニューを見に行こう。

20240419_rjnt_12ja11aj

JA11AJ↑ C208A ASK

20240419_rjnt_13b18661

50分遅れでの到着です。千歳便の後になりました。

20240419_rjnt_14b18661
20240419_rjnt_15b18661

CAL2170 RCTP-RJNT B-18661 B737-8AL

20240419_rjnt_16ja12aj

JA12AJ↓ C208B ASK

RJNT 190400Z 32006KT 230V040 9999 FEW020 SCT050 19/06 Q1012

20240419_rjnt_17ja70an
20240419_rjnt_18ja70an

ANA1181 RJNT-RJCC JA70AN B737-881

20240419_rjnt_19b18661

到着が遅れたので、出発も遅れています。

20240419_rjnt_20hl8241

先に大韓航空さんが到着。しかし大韓は、いつぶりなんだろう?

20240419_rjnt_21hl8241

KAL9715 RKSI-RJNT HL8241 B737-8BK

20240419_rjnt_22hl8241
20240419_rjnt_23hl8241
20240419_rjnt_24b18661

ダイナさんラインナップします。

20240419_rjnt_25hl8241
20240419_rjnt_26b18661

CAL2171 RJNT-RCTP B-18661 B737-8AL

20240419_rjnt_27b18661
20240419_rjnt_28b18661

中華航空は連日飛来があります。

20240419_rjnt_29ja119w

JA119W↑ AW139 富山県消防防災

RJNT 190500Z 24007KT 190V270 9999 FEW020 19/06 Q1011

20240419_rjnt_30ja9678

JA9678↓ AS332L1 AKF

20240419_rjnt_31ja11aj

JA11AJ C208A ASK このPさんは、帰りはいつもIFRで来られます。

20240419_rjnt_32hl8241
20240419_rjnt_33hl8241
20240419_rjnt_34hl8241

KAL9716 RJNT-RKSI HL8241 B737-8BK

河原は、この辺で

09RJNT 190600Z 28005KT 230V010 9999 FEW020 20/04 Q1011

帰りに難破船

20240419_ziwase_50dongyu

油や水の抜き取りは終わった様で、船首が軽くなって、船尾が前より沈んでいます。

20240419_ziwase_51dongyu
20240419_ziwase_52dongyu

作業小屋のプレハブが撤去されていました。あの救命艇が、地元の産廃業者に引き渡され、撤去の模様。

 

|

« 趣味的航空路誌改訂情報 2024/4/18 thu | トップページ | 定点 富山空港 2024/4/21 sun »

うみ」カテゴリの記事

てつ」カテゴリの記事

富山空港」カテゴリの記事

コメント

コメントを書く



(ウェブ上には掲載しません)


コメントは記事投稿者が公開するまで表示されません。



« 趣味的航空路誌改訂情報 2024/4/18 thu | トップページ | 定点 富山空港 2024/4/21 sun »